createdAt,value
2018-11-03T00:01:14.153Z,7.28
2018-11-03T00:03:42.246Z,6.97
2018-11-03T00:06:10.379Z,7.37
2018-11-03T00:08:38.461Z,7.70
2018-11-03T00:11:06.618Z,6.87
2018-11-03T00:13:34.714Z,7.10
2018-11-03T00:16:02.917Z,6.93
2018-11-03T00:18:31.004Z,7.12
2018-11-03T00:20:59.308Z,7.00
2018-11-03T00:23:28.129Z,7.12
2018-11-03T00:25:56.329Z,8.00
2018-11-03T00:28:24.420Z,8.10
2018-11-03T00:30:52.681Z,8.30
2018-11-03T00:33:20.775Z,8.38
2018-11-03T00:35:48.885Z,8.23
2018-11-03T00:38:16.980Z,8.50
2018-11-03T00:40:45.188Z,8.75
2018-11-03T00:43:13.298Z,9.60
2018-11-03T00:45:41.549Z,10.90
2018-11-03T00:48:09.633Z,9.78
2018-11-03T00:50:37.732Z,11.20
2018-11-03T00:53:05.879Z,10.78
2018-11-03T00:55:34.082Z,10.55
2018-11-03T00:58:02.166Z,10.88
2018-11-03T01:00:30.336Z,11.40
2018-11-03T01:02:58.481Z,11.30
2018-11-03T01:05:26.636Z,12.75
2018-11-03T01:07:54.730Z,10.90
2018-11-03T01:10:22.912Z,11.13
2018-11-03T01:12:50.993Z,9.80
2018-11-03T01:15:19.064Z,9.90
2018-11-03T01:17:47.204Z,9.30
2018-11-03T01:20:16.416Z,9.08
2018-11-03T01:22:44.729Z,8.80
2018-11-03T01:25:12.826Z,8.65
2018-11-03T01:27:40.936Z,8.75
2018-11-03T01:30:12.095Z,8.63
2018-11-03T01:32:40.403Z,8.75
2018-11-03T01:35:08.907Z,8.73
2018-11-03T01:37:37.435Z,9.18
2018-11-03T01:40:06.278Z,9.65
2018-11-03T01:42:34.381Z,9.13
2018-11-03T01:45:02.474Z,9.10
2018-11-03T01:47:30.592Z,8.95
2018-11-03T01:49:58.777Z,8.95
2018-11-03T01:52:26.869Z,9.20
2018-11-03T01:54:54.970Z,9.75
2018-11-03T01:57:23.113Z,8.78
2018-11-03T01:59:51.308Z,9.50
2018-11-03T02:02:19.489Z,9.65
2018-11-03T02:04:47.558Z,9.58
2018-11-03T02:07:15.781Z,9.60
2018-11-03T02:09:43.862Z,9.45
2018-11-03T02:12:11.946Z,9.63
2018-11-03T02:14:40.089Z,9.80
2018-11-03T02:17:08.295Z,9.40
2018-11-03T02:19:36.639Z,9.40
2018-11-03T02:22:04.963Z,9.03
2018-11-03T02:24:33.045Z,10.10
2018-11-03T02:27:01.218Z,9.93
2018-11-03T02:29:29.301Z,10.28
2018-11-03T02:31:57.494Z,10.70
2018-11-03T02:34:25.597Z,11.08
2018-11-03T02:36:53.842Z,10.63
2018-11-03T02:39:21.942Z,11.43
2018-11-03T02:41:50.085Z,12.33
2018-11-03T02:44:18.259Z,12.78
2018-11-03T02:46:46.489Z,14.05
2018-11-03T02:49:14.586Z,14.10
2018-11-03T02:51:42.849Z,14.65
2018-11-03T02:54:10.978Z,15.25
2018-11-03T02:56:39.086Z,12.53
2018-11-03T02:59:07.197Z,13.10
2018-11-03T03:01:35.492Z,12.80
2018-11-03T03:04:03.592Z,13.03
2018-11-03T03:06:31.762Z,12.37
2018-11-03T03:08:59.845Z,11.18
2018-11-03T03:11:27.936Z,11.23
2018-11-03T03:13:56.287Z,11.50
2018-11-03T03:16:24.373Z,11.65
2018-11-03T03:18:52.503Z,11.28
2018-11-03T03:21:20.608Z,11.35
2018-11-03T03:23:48.712Z,11.97
2018-11-03T03:26:16.837Z,12.70
2018-11-03T03:28:45.053Z,12.63
2018-11-03T03:31:13.124Z,13.95
2018-11-03T03:33:41.511Z,13.63
2018-11-03T03:36:09.677Z,13.40
2018-11-03T03:38:37.802Z,13.48
2018-11-03T03:41:06.172Z,13.60
2018-11-03T03:43:34.418Z,14.93
2018-11-03T03:46:02.521Z,17.07
2018-11-03T03:48:30.785Z,17.37
2018-11-03T03:50:58.917Z,17.70
2018-11-03T03:53:27.059Z,19.40
2018-11-03T03:55:55.206Z,18.47
2018-11-03T03:58:23.483Z,16.82
2018-11-03T04:00:51.641Z,18.27
2018-11-03T04:03:19.840Z,19.37
2018-11-03T04:05:54.626Z,19.23
2018-11-03T04:08:22.861Z,18.03
2018-11-03T04:10:50.997Z,18.23
2018-11-03T04:13:19.199Z,17.67
2018-11-03T04:15:47.319Z,17.23
2018-11-03T04:18:15.438Z,18.20
2018-11-03T04:20:43.582Z,21.35
2018-11-03T04:23:11.916Z,18.98
2018-11-03T04:25:40.127Z,18.80
2018-11-03T04:28:08.261Z,19.32
2018-11-03T04:30:36.387Z,20.68
2018-11-03T04:33:04.505Z,16.67
2018-11-03T04:35:32.597Z,16.17
2018-11-03T04:38:00.702Z,16.90
2018-11-03T04:40:28.868Z,16.60
2018-11-03T04:42:56.970Z,16.67
2018-11-03T04:45:25.230Z,15.93
2018-11-03T04:47:53.214Z,15.25
2018-11-03T04:50:21.369Z,15.45
2018-11-03T04:52:49.473Z,14.40
2018-11-03T04:55:17.778Z,15.23
2018-11-03T04:57:45.786Z,14.95
2018-11-03T05:00:13.910Z,14.45
2018-11-03T05:02:42.074Z,15.33
2018-11-03T05:05:10.273Z,15.68
2018-11-03T05:07:38.397Z,15.55
2018-11-03T05:10:07.409Z,16.10
2018-11-03T05:12:35.607Z,15.40
2018-11-03T05:15:03.694Z,15.13
2018-11-03T05:17:31.853Z,15.65
2018-11-03T05:20:00.071Z,15.00
2018-11-03T05:22:28.181Z,14.90
2018-11-03T05:24:56.325Z,14.70
2018-11-03T05:27:24.453Z,15.88
2018-11-03T05:29:52.587Z,16.50
2018-11-03T05:32:20.718Z,16.45
2018-11-03T05:34:48.877Z,16.42
2018-11-03T05:37:17.009Z,17.80
2018-11-03T05:39:45.158Z,17.45
2018-11-03T05:42:13.260Z,19.40
2018-11-03T05:44:41.446Z,17.70
2018-11-03T05:47:09.596Z,18.12
2018-11-03T05:49:37.712Z,18.55
2018-11-03T05:52:05.893Z,17.57
2018-11-03T05:54:33.985Z,18.23
2018-11-03T05:57:02.125Z,18.27
2018-11-03T05:59:30.254Z,18.70
2018-11-03T06:01:58.435Z,17.80
2018-11-03T06:04:26.556Z,17.37
2018-11-03T06:06:54.826Z,16.82
2018-11-03T06:09:23.066Z,16.52
2018-11-03T06:11:51.201Z,17.30
2018-11-03T06:14:19.314Z,17.45
2018-11-03T06:16:47.652Z,17.33
2018-11-03T06:19:15.814Z,17.40
2018-11-03T06:21:44.031Z,17.40
2018-11-03T06:24:12.140Z,18.70
2018-11-03T06:26:40.300Z,19.50
2018-11-03T06:29:08.450Z,19.95
2018-11-03T06:31:36.829Z,18.90
2018-11-03T06:34:05.055Z,21.93
2018-11-03T06:36:33.327Z,19.52
2018-11-03T06:39:01.503Z,19.60
2018-11-03T06:41:29.869Z,21.02
2018-11-03T06:43:58.074Z,20.53
2018-11-03T06:46:26.241Z,20.30
2018-11-03T06:48:58.610Z,20.68
2018-11-03T06:51:26.812Z,21.15
2018-11-03T06:53:54.988Z,21.48
2018-11-03T06:56:23.141Z,22.58
2018-11-03T06:58:51.260Z,25.88
2018-11-03T07:01:19.440Z,26.33
2018-11-03T07:03:47.558Z,25.97
2018-11-03T07:06:15.668Z,24.30
2018-11-03T07:08:43.917Z,23.50
2018-11-03T07:11:12.131Z,24.15
2018-11-03T07:13:40.245Z,23.10
2018-11-03T07:16:08.768Z,22.73
2018-11-03T07:18:36.883Z,23.73
2018-11-03T07:21:05.202Z,26.87
2018-11-03T07:23:33.320Z,29.18
2018-11-03T07:26:01.518Z,28.57
2018-11-03T07:28:29.714Z,26.55
2018-11-03T07:30:57.925Z,26.23
2018-11-03T07:33:26.021Z,25.23
2018-11-03T07:35:54.141Z,23.20
2018-11-03T07:38:22.357Z,25.43
2018-11-03T07:40:50.596Z,25.93
2018-11-03T07:43:18.668Z,24.92
2018-11-03T07:45:46.866Z,25.27
2018-11-03T07:48:15.186Z,25.33
2018-11-03T07:50:43.325Z,24.40
2018-11-03T07:53:11.525Z,24.90
2018-11-03T07:55:39.680Z,24.67
2018-11-03T07:58:07.997Z,25.75
2018-11-03T08:00:36.215Z,25.77
2018-11-03T08:03:04.269Z,24.72
2018-11-03T08:05:32.360Z,26.00
2018-11-03T08:08:00.526Z,26.23
2018-11-03T08:13:08.825Z,27.07
2018-11-03T08:15:37.095Z,27.17
2018-11-03T08:18:05.547Z,27.37
2018-11-03T08:20:33.803Z,26.73
2018-11-03T08:23:02.040Z,25.50
2018-11-03T08:25:30.269Z,25.95
2018-11-03T08:27:58.680Z,24.20
2018-11-03T08:30:27.018Z,21.10
2018-11-03T08:32:55.326Z,21.75
2018-11-03T08:35:23.523Z,21.30
2018-11-03T08:37:51.738Z,20.10
2018-11-03T08:40:19.947Z,19.25
2018-11-03T08:42:48.424Z,19.37
2018-11-03T08:45:16.660Z,18.67
2018-11-03T08:47:44.890Z,19.70
2018-11-03T08:50:13.442Z,18.90
2018-11-03T08:52:41.853Z,19.27
2018-11-03T08:55:11.113Z,18.87
2018-11-03T08:57:39.298Z,18.50
2018-11-03T09:00:09.911Z,18.70
2018-11-03T09:02:37.985Z,19.40
2018-11-03T09:05:06.189Z,18.12
2018-11-03T09:07:34.697Z,18.65
2018-11-03T09:10:02.874Z,17.87
2018-11-03T09:12:31.002Z,18.85
2018-11-03T09:14:59.203Z,18.10
2018-11-03T09:17:27.269Z,17.85
2018-11-03T09:19:55.381Z,18.17
2018-11-03T09:22:23.589Z,17.30
2018-11-03T09:24:51.718Z,17.60
2018-11-03T09:27:19.910Z,18.00
2018-11-03T09:29:48.059Z,17.70
2018-11-03T09:32:16.199Z,17.75
2018-11-03T09:34:44.302Z,17.95
2018-11-03T09:37:12.479Z,17.32
2018-11-03T09:39:40.589Z,16.70
2018-11-03T09:42:08.821Z,16.40
2018-11-03T09:44:36.893Z,15.85
2018-11-03T09:47:05.150Z,15.88
2018-11-03T09:49:34.112Z,16.15
2018-11-03T09:52:03.180Z,15.03
2018-11-03T09:54:31.264Z,15.03
2018-11-03T09:56:59.397Z,14.73
2018-11-03T09:59:27.494Z,14.20
2018-11-03T10:01:55.653Z,13.83
2018-11-03T10:04:23.829Z,14.00
2018-11-03T10:06:51.933Z,14.15
2018-11-03T10:09:20.154Z,13.80
2018-11-03T10:11:48.348Z,14.23
2018-11-03T10:14:16.497Z,13.33
2018-11-03T10:16:44.596Z,13.67
2018-11-03T10:19:12.805Z,13.30
2018-11-03T10:21:40.960Z,13.03
2018-11-03T10:24:09.294Z,14.55
2018-11-03T10:26:37.517Z,13.95
2018-11-03T10:29:06.097Z,14.18
2018-11-03T10:31:34.228Z,14.38
2018-11-03T10:34:02.591Z,14.83
2018-11-03T10:36:30.741Z,13.80
2018-11-03T10:38:59.008Z,14.18
2018-11-03T10:41:27.209Z,14.50
2018-11-03T10:43:55.347Z,14.83
2018-11-03T10:46:23.618Z,14.47
2018-11-03T10:48:51.727Z,14.40
2018-11-03T10:51:19.865Z,14.50
2018-11-03T10:53:48.137Z,14.43
2018-11-03T10:56:16.205Z,14.60
2018-11-03T10:58:44.365Z,13.88
2018-11-03T11:01:17.834Z,14.28
2018-11-03T11:03:51.497Z,14.07
2018-11-03T11:06:24.977Z,13.53
2018-11-03T11:08:58.609Z,13.58
2018-11-03T11:11:32.157Z,14.07
2018-11-03T11:14:00.416Z,14.10
2018-11-03T11:16:28.670Z,14.98
2018-11-03T11:18:56.966Z,14.78
2018-11-03T11:21:25.139Z,14.20
2018-11-03T11:23:53.607Z,14.35
2018-11-03T11:26:21.764Z,14.35
2018-11-03T11:28:50.094Z,13.80
2018-11-03T11:31:18.329Z,15.35
2018-11-03T11:33:46.424Z,14.65
2018-11-03T11:36:14.537Z,15.25
2018-11-03T11:38:42.805Z,14.90
2018-11-03T11:41:10.913Z,14.33
2018-11-03T11:43:39.069Z,14.75
2018-11-03T11:46:07.477Z,14.25
2018-11-03T11:48:35.617Z,14.73
2018-11-03T11:51:04.025Z,14.47
2018-11-03T11:53:32.268Z,14.70
2018-11-03T11:56:00.576Z,14.47
2018-11-03T11:58:28.723Z,14.18
2018-11-03T12:00:59.753Z,13.55
2018-11-03T12:03:30.178Z,13.30
2018-11-03T12:05:58.425Z,12.65
2018-11-03T12:08:26.721Z,12.95
2018-11-03T12:10:54.933Z,13.58
2018-11-03T12:13:23.082Z,13.48
2018-11-03T12:15:51.252Z,14.20
2018-11-03T12:18:19.337Z,13.50
2018-11-03T12:20:47.521Z,13.10
2018-11-03T12:23:15.679Z,13.70
2018-11-03T12:25:44.444Z,14.50
2018-11-03T12:28:12.755Z,13.85
2018-11-03T12:30:40.884Z,12.67
2018-11-03T12:33:09.038Z,12.83
2018-11-03T12:35:37.257Z,12.53
2018-11-03T12:38:05.501Z,13.15
2018-11-03T12:40:33.729Z,13.05
2018-11-03T12:43:02.153Z,12.88
2018-11-03T12:45:30.262Z,12.37
2018-11-03T12:47:58.501Z,13.50
2018-11-03T12:50:26.581Z,12.45
2018-11-03T12:52:54.706Z,12.53
2018-11-03T12:55:22.885Z,14.07
2018-11-03T12:57:50.993Z,13.17
2018-11-03T13:00:19.125Z,12.47
2018-11-03T13:02:47.433Z,12.93
2018-11-03T13:05:15.709Z,12.50
2018-11-03T13:07:44.900Z,12.40
2018-11-03T13:10:13.276Z,14.35
2018-11-03T13:12:42.072Z,14.40
2018-11-03T13:15:11.385Z,13.90
2018-11-03T13:17:39.577Z,12.80
2018-11-03T13:20:09.142Z,13.25
2018-11-03T13:22:37.260Z,12.40
2018-11-03T13:25:06.228Z,13.13
2018-11-03T13:27:34.414Z,12.30
2018-11-03T13:30:02.626Z,13.70
2018-11-03T13:32:30.790Z,12.90
2018-11-03T13:34:59.010Z,12.53
2018-11-03T13:37:27.037Z,12.00
2018-11-03T13:39:55.290Z,12.95
2018-11-03T13:42:23.432Z,13.15
2018-11-03T13:44:51.577Z,12.78
2018-11-03T13:47:19.819Z,12.10
2018-11-03T13:49:47.858Z,12.28
2018-11-03T13:52:16.003Z,12.90
2018-11-03T13:54:44.194Z,13.95
2018-11-03T13:57:12.497Z,13.38
2018-11-03T13:59:40.496Z,12.80
2018-11-03T14:02:08.797Z,12.40
2018-11-03T14:04:36.993Z,12.65
2018-11-03T14:07:05.225Z,12.78
2018-11-03T14:09:33.504Z,12.30
2018-11-03T14:12:01.729Z,12.85
2018-11-03T14:14:29.846Z,12.93
2018-11-03T14:16:58.133Z,13.15
2018-11-03T14:19:26.240Z,12.68
2018-11-03T14:21:54.352Z,14.05
2018-11-03T14:24:22.466Z,13.47
2018-11-03T14:26:50.656Z,13.50
2018-11-03T14:29:18.789Z,13.33
2018-11-03T14:31:46.990Z,14.80
2018-11-03T14:34:15.114Z,13.40
2018-11-03T14:37:46.465Z,13.53
2018-11-03T14:40:15.936Z,12.78
2018-11-03T14:42:44.713Z,13.55
2018-11-03T14:45:14.033Z,12.82
2018-11-03T14:47:42.263Z,13.25
2018-11-03T14:50:10.861Z,13.50
2018-11-03T14:52:40.237Z,13.22
2018-11-03T14:55:09.209Z,12.93
2018-11-03T14:57:37.590Z,13.32
2018-11-03T15:00:09.634Z,13.68
2018-11-03T15:02:37.855Z,13.55
2018-11-03T15:05:06.722Z,13.50
2018-11-03T15:07:35.252Z,12.10
2018-11-03T15:10:03.785Z,11.73
2018-11-03T15:12:31.984Z,12.70
2018-11-03T15:15:00.189Z,12.68
2018-11-03T15:17:28.305Z,13.72
2018-11-03T15:19:56.477Z,12.90
2018-11-03T15:22:24.836Z,12.97
2018-11-03T15:24:52.873Z,12.75
2018-11-03T15:27:20.970Z,12.20
2018-11-03T15:29:49.170Z,12.45
2018-11-03T15:32:17.408Z,12.47
2018-11-03T15:34:45.526Z,12.03
2018-11-03T15:37:13.681Z,11.35
2018-11-03T15:39:41.788Z,11.03
2018-11-03T15:42:09.985Z,10.95
2018-11-03T15:44:38.580Z,10.50
2018-11-03T15:47:06.734Z,10.23
2018-11-03T15:49:34.885Z,11.40
2018-11-03T15:52:03.014Z,10.95
2018-11-03T15:54:31.104Z,10.95
2018-11-03T15:56:59.212Z,10.98
2018-11-03T15:59:27.321Z,12.10
2018-11-03T16:01:55.653Z,11.20
2018-11-03T16:04:23.821Z,10.65
2018-11-03T16:06:51.985Z,10.10
2018-11-03T16:09:20.109Z,10.35
2018-11-03T16:11:48.236Z,9.90
2018-11-03T16:14:16.385Z,9.80
2018-11-03T16:16:44.493Z,9.70
2018-11-03T16:19:12.841Z,11.87
2018-11-03T16:21:40.909Z,11.20
2018-11-03T16:24:09.030Z,9.78
2018-11-03T16:26:37.161Z,9.60
2018-11-03T16:29:05.356Z,9.95
2018-11-03T16:31:33.454Z,10.03
2018-11-03T16:34:01.702Z,9.50
2018-11-03T16:36:29.818Z,10.18
2018-11-03T16:38:57.920Z,9.73
2018-11-03T16:41:26.020Z,9.80
2018-11-03T16:43:54.380Z,10.63
2018-11-03T16:46:22.441Z,10.25
2018-11-03T16:48:50.804Z,9.83
2018-11-03T16:51:18.907Z,10.32
2018-11-03T16:53:47.026Z,10.63
2018-11-03T16:56:15.133Z,10.43
2018-11-03T16:58:43.392Z,10.80
2018-11-03T17:01:11.406Z,11.20
2018-11-03T17:03:39.566Z,11.07
2018-11-03T17:06:07.665Z,11.55
2018-11-03T17:08:35.782Z,11.40
2018-11-03T17:11:03.935Z,11.53
2018-11-03T17:13:32.148Z,11.20
2018-11-03T17:16:00.245Z,11.27
2018-11-03T17:18:28.357Z,11.25
2018-11-03T17:20:56.460Z,11.43
2018-11-03T17:23:24.676Z,10.93
2018-11-03T17:25:52.733Z,11.63
2018-11-03T17:28:20.844Z,11.25
2018-11-03T17:30:48.940Z,12.15
2018-11-03T17:33:17.086Z,12.10
2018-11-03T17:35:45.192Z,12.10
2018-11-03T17:38:13.308Z,12.93
2018-11-03T17:40:41.416Z,12.68
2018-11-03T17:43:09.593Z,13.32
2018-11-03T17:45:37.681Z,13.60
2018-11-03T17:48:05.790Z,13.25
2018-11-03T17:50:33.929Z,14.20
2018-11-03T17:53:02.034Z,13.80
2018-11-03T17:55:30.153Z,15.00
2018-11-03T17:57:58.258Z,14.18
2018-11-03T18:00:26.558Z,14.77
2018-11-03T18:02:54.453Z,14.95
2018-11-03T18:05:22.540Z,15.43
2018-11-03T18:07:50.688Z,15.03
2018-11-03T18:10:18.816Z,15.40
2018-11-03T18:12:46.916Z,23.02
2018-11-03T18:15:15.035Z,19.62
2018-11-03T18:17:43.327Z,19.67
2018-11-03T18:20:11.864Z,16.50
2018-11-03T18:22:40.261Z,18.32
2018-11-03T18:25:08.621Z,20.37
2018-11-03T18:27:36.753Z,16.80
2018-11-03T18:30:05.790Z,16.35
2018-11-03T18:32:33.893Z,16.82
2018-11-03T18:35:02.029Z,16.70
2018-11-03T18:37:30.112Z,16.42
2018-11-03T18:39:58.265Z,17.73
2018-11-03T18:42:26.465Z,16.93
2018-11-03T18:44:54.586Z,16.67
2018-11-03T18:47:22.695Z,16.95
2018-11-03T18:49:50.807Z,16.80
2018-11-03T18:52:18.933Z,17.37
2018-11-03T18:54:47.041Z,17.32
2018-11-03T18:57:15.329Z,16.85
2018-11-03T18:59:45.494Z,16.48
2018-11-03T19:02:15.457Z,16.60
2018-11-03T19:04:43.531Z,15.88
2018-11-03T19:07:11.665Z,16.85
2018-11-03T19:09:39.828Z,16.60
2018-11-03T19:12:08.185Z,17.65
2018-11-03T19:14:36.363Z,16.52
2018-11-03T19:17:04.941Z,16.95
2018-11-03T19:19:33.084Z,17.48
2018-11-03T19:22:01.326Z,18.15
2018-11-03T19:24:30.232Z,17.40
2018-11-03T19:26:58.341Z,18.00
2018-11-03T19:29:26.490Z,17.95
2018-11-03T19:31:54.626Z,17.80
2018-11-03T19:34:22.761Z,18.05
2018-11-03T19:36:50.921Z,17.10
2018-11-03T19:39:19.061Z,17.67
2018-11-03T19:41:47.305Z,18.23
2018-11-03T19:44:16.357Z,17.73
2018-11-03T19:46:44.552Z,17.43
2018-11-03T19:49:12.629Z,17.65
2018-11-03T19:51:40.825Z,18.30
2018-11-03T19:54:08.916Z,17.73
2018-11-03T19:56:37.044Z,18.00
2018-11-03T19:59:05.221Z,18.60
2018-11-03T20:01:33.367Z,18.00
2018-11-03T20:04:01.453Z,18.33
2018-11-03T20:06:29.561Z,17.77
2018-11-03T20:08:57.688Z,18.42
2018-11-03T20:11:25.797Z,17.80
2018-11-03T20:13:53.978Z,18.23
2018-11-03T20:16:22.164Z,18.10
2018-11-03T20:18:50.293Z,18.70
2018-11-03T20:21:18.485Z,18.80
2018-11-03T20:23:46.611Z,18.90
2018-11-03T20:26:14.779Z,19.10
2018-11-03T20:28:42.809Z,19.07
2018-11-03T20:31:11.005Z,18.73
2018-11-03T20:33:39.133Z,18.87
2018-11-03T20:36:07.277Z,18.82
2018-11-03T20:38:35.404Z,18.62
2018-11-03T20:41:03.534Z,18.63
2018-11-03T20:43:31.714Z,18.32
2018-11-03T20:45:59.966Z,18.92
2018-11-03T20:48:28.151Z,18.70
2018-11-03T20:51:01.793Z,18.73
2018-11-03T20:53:29.882Z,18.60
2018-11-03T20:55:58.069Z,19.00
2018-11-03T20:58:26.246Z,19.55
2018-11-03T21:00:54.409Z,18.70
2018-11-03T21:03:22.577Z,18.85
2018-11-03T21:05:50.682Z,18.93
2018-11-03T21:08:18.997Z,18.60
2018-11-03T21:10:47.089Z,19.27
2018-11-03T21:13:15.248Z,19.10
2018-11-03T21:15:43.448Z,19.05
2018-11-03T21:18:11.569Z,18.82
2018-11-03T21:20:39.723Z,19.45
2018-11-03T21:23:08.071Z,18.80
2018-11-03T21:25:36.545Z,19.85
2018-11-03T21:28:04.641Z,19.07
2018-11-03T21:30:32.752Z,19.37
2018-11-03T21:33:01.088Z,18.90
2018-11-03T21:35:29.070Z,19.60
2018-11-03T21:37:57.245Z,18.77
2018-11-03T21:40:25.393Z,20.17
2018-11-03T21:42:53.569Z,19.20
2018-11-03T21:45:21.746Z,19.35
2018-11-03T21:47:49.915Z,19.42
2018-11-03T21:50:18.061Z,19.95
2018-11-03T21:52:46.265Z,19.75
2018-11-03T21:55:14.390Z,18.77
2018-11-03T21:57:42.617Z,19.75
2018-11-03T22:00:11.603Z,18.82
2018-11-03T22:02:39.986Z,19.73
2018-11-03T22:05:09.674Z,19.20
2018-11-03T22:07:37.810Z,19.37
2018-11-03T22:10:06.361Z,19.67
2018-11-03T22:12:34.521Z,19.25
2018-11-03T22:15:02.645Z,19.42
2018-11-03T22:17:30.769Z,19.40
2018-11-03T22:19:58.956Z,19.50
2018-11-03T22:22:27.091Z,19.85
2018-11-03T22:24:55.249Z,20.23
2018-11-03T22:27:23.388Z,19.57
2018-11-03T22:29:51.530Z,19.87
2018-11-03T22:32:19.673Z,19.20
2018-11-03T22:34:47.853Z,19.32
2018-11-03T22:37:15.985Z,19.70
2018-11-03T22:39:44.192Z,19.52
2018-11-03T22:42:12.362Z,19.45
2018-11-03T22:44:40.417Z,19.57
2018-11-03T22:47:08.545Z,20.10
2018-11-03T22:49:36.753Z,20.43
2018-11-03T22:52:06.617Z,18.95
2018-11-03T22:54:35.353Z,19.82
2018-11-03T22:57:03.551Z,19.77
2018-11-03T22:59:31.648Z,19.82
2018-11-03T23:01:59.802Z,20.08
2018-11-03T23:04:28.005Z,19.75
2018-11-03T23:06:56.228Z,20.00
2018-11-03T23:09:24.441Z,20.40
2018-11-03T23:11:52.574Z,20.40
2018-11-03T23:14:20.783Z,19.90
2018-11-03T23:19:28.432Z,19.12
2018-11-03T23:21:56.580Z,19.98
2018-11-03T23:24:24.713Z,19.95
2018-11-03T23:26:52.853Z,20.27
2018-11-03T23:29:21.005Z,20.00
2018-11-03T23:31:49.066Z,20.10
2018-11-03T23:34:17.201Z,19.63
2018-11-03T23:36:45.494Z,20.00
2018-11-03T23:39:13.689Z,20.30
2018-11-03T23:41:41.945Z,20.27
2018-11-03T23:44:10.329Z,20.40
2018-11-03T23:46:38.876Z,20.27
2018-11-03T23:49:07.253Z,20.88
2018-11-03T23:51:35.486Z,20.40
2018-11-03T23:54:03.629Z,20.15
2018-11-03T23:56:31.945Z,19.92
2018-11-03T23:59:00.062Z,20.40
